»·PEaware :: N7375Q L52-67L

N7375Q :: L52-67L

FLIGHT INFORMATION

Flight Status: Arrived
Operator: Privately registered:
United States
More flights under this callsign
Pilot: Ion I. (24133)
Aircraft: SOCATA TBM-900
(TBM9)
More flights by this aircraft type
Origin: L52 Oceano Co
United States
Destination: 67L Mesquite
United States
More flights between these airports :: More routes between these airports
Route: COREZ JENID FANLO
File this flight plan on PilotEdge
Remarks:
Altitude:
(Current/Filed)
31,000ft
Speed:
(Current/Filed)
310kts
Departed: 01-Aug-20 08:53 PM
Arrived: 01-Aug-20 10:15 PM
Distance/Time
Traveled:
335nm/1:22
Distance/Time
To Go:
Arrived

Flight Plot

Page will automatically refresh every two minutes.

Flight plan parsing failed; only flown route is shown


Map Options




Map Legend


Flown Route
Filed Route
Departure Airport
Arrival Airport
Navaid (VOR, NDB)
Fix

Horizontal Profiles

Position Reports

Time Latitude Longitude Heading Altitude Ground
Speed
01-Aug-20 20:43 35.103406 -120.624442 32 18ft 0kts
01-Aug-20 20:45 35.103406 -120.624442 32 18ft 0kts
01-Aug-20 20:46 35.103406 -120.624442 32 18ft 0kts
01-Aug-20 20:47 35.103406 -120.624442 32 18ft 0kts
01-Aug-20 20:48 35.103406 -120.624442 32 18ft 0kts
01-Aug-20 20:49 35.103406 -120.624442 32 18ft 0kts
01-Aug-20 20:50 35.103529 -120.625009 272 18ft 2kts
01-Aug-20 20:51 35.103528 -120.625100 262 18ft 0kts
01-Aug-20 20:52 35.103128 -120.625277 119 18ft 14kts
01-Aug-20 20:53 35.093158 -120.598718 82 1119ft 121kts
01-Aug-20 20:54 35.110297 -120.565741 57 3691ft 111kts
01-Aug-20 20:55 35.126102 -120.528667 57 5722ft 136kts
01-Aug-20 20:56 35.143742 -120.486620 58 7752ft 145kts
01-Aug-20 20:57 35.162426 -120.441907 59 9760ft 150kts
01-Aug-20 20:58 35.181699 -120.395725 60 11755ft 154kts
01-Aug-20 20:59 35.178726 -120.347299 107 13713ft 166kts
01-Aug-20 21:00 35.166003 -120.292481 107 15733ft 184kts
01-Aug-20 21:01 35.151328 -120.228626 107 17814ft 202kts
01-Aug-20 21:02 35.135933 -120.161733 107 19810ft 207kts
01-Aug-20 21:02 35.122674 -120.104297 108 21480ft 215kts
01-Aug-20 21:04 35.103311 -120.020596 108 23820ft 225kts
01-Aug-20 21:04 35.088876 -119.958499 108 25481ft 231kts
01-Aug-20 21:05 35.071227 -119.882612 108 27459ft 231kts
01-Aug-20 21:07 35.050131 -119.792319 108 29809ft 243kts
01-Aug-20 21:07 35.034321 -119.724893 108 31023ft 266kts
01-Aug-20 21:08 35.011999 -119.629833 107 31017ft 307kts
01-Aug-20 21:09 34.987580 -119.526272 107 31007ft 325kts
01-Aug-20 21:10 34.962134 -119.418897 107 31003ft 332kts
01-Aug-20 21:11 34.936639 -119.311814 107 30998ft 334kts
01-Aug-20 21:12 34.910439 -119.202267 107 30999ft 335kts
01-Aug-20 21:13 34.891153 -119.121900 107 30999ft 335kts
01-Aug-20 21:14 34.864799 -119.012539 107 31010ft 335kts
01-Aug-20 21:15 34.838426 -118.903546 107 31092ft 334kts
01-Aug-20 21:16 34.812007 -118.794839 107 31146ft 334kts
01-Aug-20 21:17 34.785415 -118.685888 107 31121ft 336kts
01-Aug-20 21:18 34.758540 -118.576248 107 31089ft 337kts
01-Aug-20 21:19 34.731564 -118.466657 107 31057ft 337kts
01-Aug-20 21:20 34.704411 -118.356835 107 31038ft 337kts
01-Aug-20 21:21 34.677372 -118.247927 107 31035ft 336kts
01-Aug-20 21:22 34.650241 -118.139116 107 31035ft 335kts
01-Aug-20 21:23 34.637752 -118.028490 75 31046ft 335kts
01-Aug-20 21:24 34.664340 -117.919891 73 31069ft 335kts
01-Aug-20 21:25 34.689228 -117.810874 73 31091ft 335kts
01-Aug-20 21:26 34.714033 -117.701563 73 31092ft 335kts
01-Aug-20 21:27 34.738932 -117.591347 73 31087ft 336kts
01-Aug-20 21:28 34.763700 -117.481180 72 31077ft 337kts
01-Aug-20 21:29 34.788414 -117.370757 72 31068ft 338kts
01-Aug-20 21:30 34.812984 -117.260490 73 31054ft 338kts
01-Aug-20 21:31 34.837564 -117.149623 73 31045ft 338kts
01-Aug-20 21:32 34.861997 -117.038925 73 31030ft 338kts
01-Aug-20 21:33 34.886335 -116.928140 72 31007ft 339kts
01-Aug-20 21:34 34.910674 -116.816816 72 31000ft 338kts
01-Aug-20 21:35 34.934827 -116.705810 72 31000ft 338kts
01-Aug-20 21:36 34.958894 -116.594756 71 30999ft 338kts
01-Aug-20 21:37 35.009999 -116.500928 49 31001ft 333kts
01-Aug-20 21:38 35.065726 -116.410527 49 31000ft 333kts
01-Aug-20 21:39 35.120701 -116.320968 49 30997ft 333kts
01-Aug-20 21:40 35.176216 -116.230300 49 30999ft 333kts
01-Aug-20 21:41 35.231770 -116.139342 49 30999ft 334kts
01-Aug-20 21:42 35.289087 -116.045281 49 29986ft 357kts
01-Aug-20 21:43 35.349348 -115.946096 49 28518ft 368kts
01-Aug-20 21:44 35.410111 -115.845785 50 27020ft 365kts
01-Aug-20 21:45 35.470344 -115.746035 50 25509ft 359kts
01-Aug-20 21:46 35.528866 -115.648859 51 24030ft 349kts
01-Aug-20 21:47 35.583520 -115.557786 51 23977ft 319kts
01-Aug-20 21:48 35.635269 -115.471404 51 23980ft 310kts
01-Aug-20 21:49 35.686383 -115.385882 51 23734ft 315kts
01-Aug-20 21:50 35.738718 -115.298089 52 23243ft 319kts
01-Aug-20 21:51 35.791187 -115.209850 51 22738ft 319kts
01-Aug-20 21:52 35.843464 -115.121705 51 22232ft 318kts
01-Aug-20 21:53 35.895552 -115.033656 51 21725ft 316kts
01-Aug-20 21:54 35.947384 -114.945854 51 20947ft 319kts
01-Aug-20 21:55 36.000897 -114.858289 37 19942ft 317kts
01-Aug-20 21:56 36.068183 -114.794615 35 19934ft 297kts
01-Aug-20 21:57 36.133485 -114.733365 32 19842ft 294kts
01-Aug-20 21:58 36.203194 -114.674375 32 18632ft 314kts
01-Aug-20 21:59 36.276802 -114.612268 32 16646ft 323kts
01-Aug-20 22:00 36.350393 -114.550030 32 14291ft 320kts
01-Aug-20 22:01 36.424011 -114.487616 33 11787ft 323kts
01-Aug-20 22:02 36.496780 -114.425743 32 9293ft 295kts
01-Aug-20 22:03 36.558933 -114.372827 31 7045ft 250kts
01-Aug-20 22:04 36.607224 -114.325514 52 6354ft 188kts
01-Aug-20 22:05 36.631336 -114.274783 64 5250ft 160kts
01-Aug-20 22:06 36.651115 -114.223713 64 4903ft 166kts
01-Aug-20 22:07 36.678668 -114.185537 32 4892ft 114kts
01-Aug-20 22:08 36.704682 -114.163488 29 4875ft 113kts
01-Aug-20 22:09 36.730726 -114.140513 29 4082ft 110kts
01-Aug-20 22:10 36.755711 -114.119866 33 3684ft 109kts
01-Aug-20 22:11 36.781071 -114.098604 35 3093ft 109kts
01-Aug-20 22:12 36.805562 -114.077811 33 2492ft 108kts
01-Aug-20 22:13 36.829131 -114.058742 28 1985ft 88kts
01-Aug-20 22:14 36.834553 -114.055968 305 1978ft 6kts
01-Aug-20 22:15 36.834511 -114.056221 208 1978ft 0kts

Navigation Log

Ident Type
Flight plan parsing failed, navigation log unavailable